sensor_id;sensor_type;location;lat;lon;timestamp;P1;durP1;ratioP1;P2;durP2;ratioP2
27833;SDS011;15200;50.570;7.244;2023-08-06T00:01:52;4.00;;;2.70;;
27833;SDS011;15200;50.570;7.244;2023-08-06T00:04:19;4.22;;;2.50;;
27833;SDS011;15200;50.570;7.244;2023-08-06T00:06:47;8.03;;;2.80;;
27833;SDS011;15200;50.570;7.244;2023-08-06T00:09:14;6.25;;;2.55;;
27833;SDS011;15200;50.570;7.244;2023-08-06T00:11:41;2.92;;;2.62;;
27833;SDS011;15200;50.570;7.244;2023-08-06T00:14:10;3.22;;;2.37;;
27833;SDS011;15200;50.570;7.244;2023-08-06T00:16:37;4.12;;;2.58;;
27833;SDS011;15200;50.570;7.244;2023-08-06T00:19:04;3.05;;;2.58;;
27833;SDS011;15200;50.570;7.244;2023-08-06T00:21:32;2.87;;;2.37;;
27833;SDS011;15200;50.570;7.244;2023-08-06T00:23:59;5.53;;;2.30;;
27833;SDS011;15200;50.570;7.244;2023-08-06T00:26:27;5.00;;;2.20;;
27833;SDS011;15200;50.570;7.244;2023-08-06T00:28:54;3.35;;;2.65;;
27833;SDS011;15200;50.570;7.244;2023-08-06T00:31:21;3.95;;;2.35;;
27833;SDS011;15200;50.570;7.244;2023-08-06T00:33:49;2.72;;;2.05;;
27833;SDS011;15200;50.570;7.244;2023-08-06T00:36:16;3.10;;;2.37;;
27833;SDS011;15200;50.570;7.244;2023-08-06T00:38:43;4.53;;;2.67;;
27833;SDS011;15200;50.570;7.244;2023-08-06T00:41:11;3.22;;;2.60;;
27833;SDS011;15200;50.570;7.244;2023-08-06T00:43:38;2.50;;;2.30;;
27833;SDS011;15200;50.570;7.244;2023-08-06T00:46:05;4.55;;;2.30;;
27833;SDS011;15200;50.570;7.244;2023-08-06T00:48:33;6.05;;;2.52;;
27833;SDS011;15200;50.570;7.244;2023-08-06T00:51:01;4.95;;;2.35;;
27833;SDS011;15200;50.570;7.244;2023-08-06T00:53:28;3.45;;;2.50;;
27833;SDS011;15200;50.570;7.244;2023-08-06T00:55:56;7.15;;;2.50;;
27833;SDS011;15200;50.570;7.244;2023-08-06T00:58:23;5.17;;;2.90;;
27833;SDS011;15200;50.570;7.244;2023-08-06T01:00:50;4.00;;;2.92;;
27833;SDS011;15200;50.570;7.244;2023-08-06T01:03:18;4.45;;;2.35;;
27833;SDS011;15200;50.570;7.244;2023-08-06T01:05:46;2.85;;;2.20;;
27833;SDS011;15200;50.570;7.244;2023-08-06T01:10:46;3.37;;;2.62;;
27833;SDS011;15200;50.570;7.244;2023-08-06T01:13:16;2.55;;;2.33;;
27833;SDS011;15200;50.570;7.244;2023-08-06T01:15:46;2.67;;;2.27;;
27833;SDS011;15200;50.570;7.244;2023-08-06T01:18:15;2.65;;;2.10;;
27833;SDS011;15200;50.570;7.244;2023-08-06T01:20:43;3.27;;;2.42;;
27833;SDS011;15200;50.570;7.244;2023-08-06T01:23:10;3.12;;;2.75;;
27833;SDS011;15200;50.570;7.244;2023-08-06T01:25:43;3.42;;;2.50;;
27833;SDS011;15200;50.570;7.244;2023-08-06T01:28:18;3.37;;;2.70;;
27833;SDS011;15200;50.570;7.244;2023-08-06T01:30:44;3.00;;;2.37;;
27833;SDS011;15200;50.570;7.244;2023-08-06T01:33:14;6.65;;;2.30;;
27833;SDS011;15200;50.570;7.244;2023-08-06T01:35:42;3.10;;;2.27;;
27833;SDS011;15200;50.570;7.244;2023-08-06T01:38:09;2.70;;;2.20;;
27833;SDS011;15200;50.570;7.244;2023-08-06T01:40:37;3.22;;;2.55;;
27833;SDS011;15200;50.570;7.244;2023-08-06T01:43:04;2.47;;;2.27;;
27833;SDS011;15200;50.570;7.244;2023-08-06T01:45:31;2.90;;;2.30;;
27833;SDS011;15200;50.570;7.244;2023-08-06T01:47:59;4.22;;;2.67;;
27833;SDS011;15200;50.570;7.244;2023-08-06T01:50:26;4.72;;;2.30;;
27833;SDS011;15200;50.570;7.244;2023-08-06T01:52:53;5.75;;;2.80;;
27833;SDS011;15200;50.570;7.244;2023-08-06T01:55:21;5.53;;;2.30;;
27833;SDS011;15200;50.570;7.244;2023-08-06T01:57:48;4.97;;;2.35;;
27833;SDS011;15200;50.570;7.244;2023-08-06T02:00:15;4.72;;;2.12;;
27833;SDS011;15200;50.570;7.244;2023-08-06T02:02:42;3.00;;;2.58;;
27833;SDS011;15200;50.570;7.244;2023-08-06T02:05:10;3.45;;;2.25;;
27833;SDS011;15200;50.570;7.244;2023-08-06T02:07:37;6.10;;;2.85;;
27833;SDS011;15200;50.570;7.244;2023-08-06T02:10:05;3.77;;;2.22;;
27833;SDS011;15200;50.570;7.244;2023-08-06T02:12:32;4.85;;;2.60;;
27833;SDS011;15200;50.570;7.244;2023-08-06T02:14:59;3.00;;;2.20;;
27833;SDS011;15200;50.570;7.244;2023-08-06T02:17:27;2.83;;;2.05;;
27833;SDS011;15200;50.570;7.244;2023-08-06T02:19:54;3.02;;;2.05;;
27833;SDS011;15200;50.570;7.244;2023-08-06T02:22:21;3.17;;;2.02;;
27833;SDS011;15200;50.570;7.244;2023-08-06T02:24:49;7.33;;;2.52;;
27833;SDS011;15200;50.570;7.244;2023-08-06T02:27:16;3.12;;;2.30;;
27833;SDS011;15200;50.570;7.244;2023-08-06T02:29:44;6.58;;;2.12;;
27833;SDS011;15200;50.570;7.244;2023-08-06T02:32:11;3.77;;;2.27;;
27833;SDS011;15200;50.570;7.244;2023-08-06T02:34:38;3.50;;;2.15;;
27833;SDS011;15200;50.570;7.244;2023-08-06T02:37:06;8.43;;;2.40;;
27833;SDS011;15200;50.570;7.244;2023-08-06T02:39:33;5.97;;;2.30;;
27833;SDS011;15200;50.570;7.244;2023-08-06T02:42:01;3.08;;;2.37;;
27833;SDS011;15200;50.570;7.244;2023-08-06T02:44:29;6.15;;;2.22;;
27833;SDS011;15200;50.570;7.244;2023-08-06T02:46:56;4.12;;;2.10;;
27833;SDS011;15200;50.570;7.244;2023-08-06T02:49:23;3.67;;;2.08;;
27833;SDS011;15200;50.570;7.244;2023-08-06T02:51:51;3.80;;;2.45;;
27833;SDS011;15200;50.570;7.244;2023-08-06T02:54:18;3.45;;;2.12;;
27833;SDS011;15200;50.570;7.244;2023-08-06T02:56:46;3.75;;;2.40;;
27833;SDS011;15200;50.570;7.244;2023-08-06T02:59:13;4.58;;;2.40;;
27833;SDS011;15200;50.570;7.244;2023-08-06T03:01:40;3.08;;;2.15;;
27833;SDS011;15200;50.570;7.244;2023-08-06T03:04:08;3.80;;;2.67;;
27833;SDS011;15200;50.570;7.244;2023-08-06T03:06:35;3.10;;;2.30;;
27833;SDS011;15200;50.570;7.244;2023-08-06T03:09:02;3.87;;;2.60;;
27833;SDS011;15200;50.570;7.244;2023-08-06T03:11:30;2.92;;;2.50;;
27833;SDS011;15200;50.570;7.244;2023-08-06T03:13:57;2.50;;;2.17;;
27833;SDS011;15200;50.570;7.244;2023-08-06T03:16:24;3.87;;;2.65;;
27833;SDS011;15200;50.570;7.244;2023-08-06T03:18:51;3.87;;;2.55;;
27833;SDS011;15200;50.570;7.244;2023-08-06T03:21:19;5.55;;;2.70;;
27833;SDS011;15200;50.570;7.244;2023-08-06T03:23:46;4.33;;;2.25;;
27833;SDS011;15200;50.570;7.244;2023-08-06T03:26:15;4.62;;;2.37;;
27833;SDS011;15200;50.570;7.244;2023-08-06T03:28:42;2.80;;;1.87;;
27833;SDS011;15200;50.570;7.244;2023-08-06T03:31:09;4.78;;;2.60;;
27833;SDS011;15200;50.570;7.244;2023-08-06T03:33:37;4.80;;;2.27;;
27833;SDS011;15200;50.570;7.244;2023-08-06T03:36:04;3.37;;;1.98;;
27833;SDS011;15200;50.570;7.244;2023-08-06T03:38:32;5.05;;;2.20;;
27833;SDS011;15200;50.570;7.244;2023-08-06T03:40:59;3.10;;;2.00;;
27833;SDS011;15200;50.570;7.244;2023-08-06T03:43:26;1.77;;;1.62;;
27833;SDS011;15200;50.570;7.244;2023-08-06T03:45:54;3.50;;;1.75;;
27833;SDS011;15200;50.570;7.244;2023-08-06T03:48:21;3.12;;;1.98;;
27833;SDS011;15200;50.570;7.244;2023-08-06T03:50:48;7.60;;;1.70;;
27833;SDS011;15200;50.570;7.244;2023-08-06T03:53:16;2.98;;;1.85;;
27833;SDS011;15200;50.570;7.244;2023-08-06T03:55:43;3.58;;;1.67;;
27833;SDS011;15200;50.570;7.244;2023-08-06T03:58:10;2.02;;;1.55;;
27833;SDS011;15200;50.570;7.244;2023-08-06T04:00:38;4.70;;;1.75;;
27833;SDS011;15200;50.570;7.244;2023-08-06T04:03:05;1.65;;;1.52;;
27833;SDS011;15200;50.570;7.244;2023-08-06T04:05:32;2.75;;;1.60;;
27833;SDS011;15200;50.570;7.244;2023-08-06T04:08:00;2.22;;;1.40;;
27833;SDS011;15200;50.570;7.244;2023-08-06T04:13:15;2.12;;;1.70;;
27833;SDS011;15200;50.570;7.244;2023-08-06T04:15:42;3.72;;;1.50;;
27833;SDS011;15200;50.570;7.244;2023-08-06T04:18:09;4.42;;;1.65;;
27833;SDS011;15200;50.570;7.244;2023-08-06T04:20:43;4.25;;;1.82;;
27833;SDS011;15200;50.570;7.244;2023-08-06T04:23:11;3.60;;;1.67;;
27833;SDS011;15200;50.570;7.244;2023-08-06T04:25:39;4.08;;;1.80;;
27833;SDS011;15200;50.570;7.244;2023-08-06T04:28:06;3.20;;;1.77;;
27833;SDS011;15200;50.570;7.244;2023-08-06T04:30:34;5.12;;;1.95;;
27833;SDS011;15200;50.570;7.244;2023-08-06T04:33:01;2.80;;;1.67;;
27833;SDS011;15200;50.570;7.244;2023-08-06T04:35:28;2.00;;;1.72;;
27833;SDS011;15200;50.570;7.244;2023-08-06T04:37:56;3.22;;;1.72;;
27833;SDS011;15200;50.570;7.244;2023-08-06T04:40:23;3.10;;;1.52;;
27833;SDS011;15200;50.570;7.244;2023-08-06T04:42:50;2.33;;;1.70;;
27833;SDS011;15200;50.570;7.244;2023-08-06T04:45:18;2.90;;;1.92;;
27833;SDS011;15200;50.570;7.244;2023-08-06T04:47:45;3.15;;;2.08;;
27833;SDS011;15200;50.570;7.244;2023-08-06T04:50:12;3.92;;;2.12;;
27833;SDS011;15200;50.570;7.244;2023-08-06T04:52:40;2.33;;;1.52;;
27833;SDS011;15200;50.570;7.244;2023-08-06T04:55:07;6.62;;;2.37;;
27833;SDS011;15200;50.570;7.244;2023-08-06T04:57:34;2.70;;;2.00;;
27833;SDS011;15200;50.570;7.244;2023-08-06T05:00:02;3.52;;;1.95;;
27833;SDS011;15200;50.570;7.244;2023-08-06T05:02:29;6.65;;;2.00;;
27833;SDS011;15200;50.570;7.244;2023-08-06T05:04:58;3.72;;;1.77;;
27833;SDS011;15200;50.570;7.244;2023-08-06T05:07:25;4.08;;;2.00;;
27833;SDS011;15200;50.570;7.244;2023-08-06T05:09:53;2.90;;;2.10;;
27833;SDS011;15200;50.570;7.244;2023-08-06T05:12:20;4.03;;;1.57;;
27833;SDS011;15200;50.570;7.244;2023-08-06T05:14:47;3.50;;;2.15;;
27833;SDS011;15200;50.570;7.244;2023-08-06T05:17:15;4.35;;;1.92;;
27833;SDS011;15200;50.570;7.244;2023-08-06T05:19:42;4.05;;;2.02;;
27833;SDS011;15200;50.570;7.244;2023-08-06T05:22:09;3.98;;;1.90;;
27833;SDS011;15200;50.570;7.244;2023-08-06T05:24:37;1.80;;;1.50;;
27833;SDS011;15200;50.570;7.244;2023-08-06T05:27:04;6.78;;;1.85;;
27833;SDS011;15200;50.570;7.244;2023-08-06T05:29:31;1.72;;;1.45;;
27833;SDS011;15200;50.570;7.244;2023-08-06T05:31:59;4.80;;;1.98;;
27833;SDS011;15200;50.570;7.244;2023-08-06T05:34:26;3.02;;;1.77;;
27833;SDS011;15200;50.570;7.244;2023-08-06T05:36:53;4.28;;;1.72;;
27833;SDS011;15200;50.570;7.244;2023-08-06T05:39:21;4.10;;;1.72;;
27833;SDS011;15200;50.570;7.244;2023-08-06T05:41:48;3.27;;;1.10;;
27833;SDS011;15200;50.570;7.244;2023-08-06T05:44:16;5.30;;;1.57;;
27833;SDS011;15200;50.570;7.244;2023-08-06T05:46:44;6.95;;;1.85;;
27833;SDS011;15200;50.570;7.244;2023-08-06T05:49:11;1.60;;;1.10;;
27833;SDS011;15200;50.570;7.244;2023-08-06T05:51:40;2.65;;;1.52;;
27833;SDS011;15200;50.570;7.244;2023-08-06T05:54:07;3.08;;;1.72;;
27833;SDS011;15200;50.570;7.244;2023-08-06T05:56:35;2.50;;;1.70;;
27833;SDS011;15200;50.570;7.244;2023-08-06T05:59:02;3.47;;;1.47;;
27833;SDS011;15200;50.570;7.244;2023-08-06T06:01:29;2.98;;;1.40;;
27833;SDS011;15200;50.570;7.244;2023-08-06T06:04:00;2.17;;;1.05;;
27833;SDS011;15200;50.570;7.244;2023-08-06T06:06:27;3.95;;;1.80;;
27833;SDS011;15200;50.570;7.244;2023-08-06T06:08:55;3.77;;;1.27;;
27833;SDS011;15200;50.570;7.244;2023-08-06T06:11:22;3.15;;;1.62;;
27833;SDS011;15200;50.570;7.244;2023-08-06T06:13:51;1.72;;;1.32;;
27833;SDS011;15200;50.570;7.244;2023-08-06T06:16:19;2.60;;;1.57;;
27833;SDS011;15200;50.570;7.244;2023-08-06T06:18:46;2.67;;;1.50;;
27833;SDS011;15200;50.570;7.244;2023-08-06T06:21:13;1.70;;;1.45;;
27833;SDS011;15200;50.570;7.244;2023-08-06T06:23:40;3.67;;;1.70;;
27833;SDS011;15200;50.570;7.244;2023-08-06T06:26:08;3.00;;;1.70;;
27833;SDS011;15200;50.570;7.244;2023-08-06T06:28:36;3.60;;;1.55;;
27833;SDS011;15200;50.570;7.244;2023-08-06T06:31:03;1.98;;;1.65;;
27833;SDS011;15200;50.570;7.244;2023-08-06T06:33:30;2.95;;;1.62;;
27833;SDS011;15200;50.570;7.244;2023-08-06T06:35:58;5.85;;;1.60;;
27833;SDS011;15200;50.570;7.244;2023-08-06T06:38:25;3.47;;;1.77;;
27833;SDS011;15200;50.570;7.244;2023-08-06T06:40:58;2.77;;;1.85;;
27833;SDS011;15200;50.570;7.244;2023-08-06T06:43:26;4.33;;;1.85;;
27833;SDS011;15200;50.570;7.244;2023-08-06T06:45:58;3.80;;;1.95;;
27833;SDS011;15200;50.570;7.244;2023-08-06T06:48:27;6.05;;;3.12;;
27833;SDS011;15200;50.570;7.244;2023-08-06T06:50:55;3.72;;;2.42;;
27833;SDS011;15200;50.570;7.244;2023-08-06T06:53:23;6.50;;;2.25;;
27833;SDS011;15200;50.570;7.244;2023-08-06T06:55:52;4.20;;;2.33;;
27833;SDS011;15200;50.570;7.244;2023-08-06T06:58:19;2.83;;;2.20;;
27833;SDS011;15200;50.570;7.244;2023-08-06T07:00:47;5.60;;;2.35;;
27833;SDS011;15200;50.570;7.244;2023-08-06T07:03:14;3.30;;;1.77;;
27833;SDS011;15200;50.570;7.244;2023-08-06T07:05:42;3.65;;;1.60;;
27833;SDS011;15200;50.570;7.244;2023-08-06T07:08:10;2.10;;;1.80;;
27833;SDS011;15200;50.570;7.244;2023-08-06T07:10:37;3.00;;;1.50;;
27833;SDS011;15200;50.570;7.244;2023-08-06T07:13:05;1.60;;;1.50;;
27833;SDS011;15200;50.570;7.244;2023-08-06T07:15:32;1.30;;;1.02;;
27833;SDS011;15200;50.570;7.244;2023-08-06T07:17:59;1.60;;;1.50;;
27833;SDS011;15200;50.570;7.244;2023-08-06T07:20:27;1.95;;;1.15;;
27833;SDS011;15200;50.570;7.244;2023-08-06T07:22:56;1.55;;;1.12;;
27833;SDS011;15200;50.570;7.244;2023-08-06T07:25:23;2.37;;;1.47;;
27833;SDS011;15200;50.570;7.244;2023-08-06T07:27:50;3.62;;;1.60;;
27833;SDS011;15200;50.570;7.244;2023-08-06T07:30:20;3.33;;;1.60;;
27833;SDS011;15200;50.570;7.244;2023-08-06T07:32:46;1.42;;;1.07;;
27833;SDS011;15200;50.570;7.244;2023-08-06T07:35:14;5.10;;;1.55;;
27833;SDS011;15200;50.570;7.244;2023-08-06T07:37:41;0.88;;;0.88;;
27833;SDS011;15200;50.570;7.244;2023-08-06T07:40:08;1.40;;;1.27;;
27833;SDS011;15200;50.570;7.244;2023-08-06T07:42:36;2.15;;;1.10;;
27833;SDS011;15200;50.570;7.244;2023-08-06T07:45:03;1.45;;;1.25;;
27833;SDS011;15200;50.570;7.244;2023-08-06T07:47:31;2.70;;;1.10;;
27833;SDS011;15200;50.570;7.244;2023-08-06T07:49:58;2.05;;;1.20;;
27833;SDS011;15200;50.570;7.244;2023-08-06T07:52:26;2.30;;;1.20;;
27833;SDS011;15200;50.570;7.244;2023-08-06T07:54:53;1.10;;;0.80;;
27833;SDS011;15200;50.570;7.244;2023-08-06T07:57:20;1.07;;;0.70;;
27833;SDS011;15200;50.570;7.244;2023-08-06T07:59:47;0.72;;;0.70;;
27833;SDS011;15200;50.570;7.244;2023-08-06T08:02:15;0.70;;;0.60;;
27833;SDS011;15200;50.570;7.244;2023-08-06T08:04:42;1.00;;;0.80;;
27833;SDS011;15200;50.570;7.244;2023-08-06T08:07:10;1.00;;;0.60;;
27833;SDS011;15200;50.570;7.244;2023-08-06T08:09:37;1.05;;;0.50;;
27833;SDS011;15200;50.570;7.244;2023-08-06T08:12:05;0.85;;;0.42;;
27833;SDS011;15200;50.570;7.244;2023-08-06T08:14:32;0.93;;;0.57;;
27833;SDS011;15200;50.570;7.244;2023-08-06T08:17:03;1.42;;;0.70;;
27833;SDS011;15200;50.570;7.244;2023-08-06T08:19:34;0.55;;;0.50;;
27833;SDS011;15200;50.570;7.244;2023-08-06T08:22:02;0.72;;;0.60;;
27833;SDS011;15200;50.570;7.244;2023-08-06T08:24:29;1.57;;;0.75;;
27833;SDS011;15200;50.570;7.244;2023-08-06T08:26:57;2.77;;;0.42;;
27833;SDS011;15200;50.570;7.244;2023-08-06T08:29:24;3.05;;;0.78;;
27833;SDS011;15200;50.570;7.244;2023-08-06T08:31:51;0.47;;;0.45;;
27833;SDS011;15200;50.570;7.244;2023-08-06T08:34:18;1.67;;;0.70;;
27833;SDS011;15200;50.570;7.244;2023-08-06T08:36:46;0.42;;;0.35;;
27833;SDS011;15200;50.570;7.244;2023-08-06T08:39:14;0.78;;;0.53;;
27833;SDS011;15200;50.570;7.244;2023-08-06T08:41:41;0.90;;;0.50;;
27833;SDS011;15200;50.570;7.244;2023-08-06T08:44:09;1.05;;;0.60;;
27833;SDS011;15200;50.570;7.244;2023-08-06T08:46:40;1.30;;;0.80;;
27833;SDS011;15200;50.570;7.244;2023-08-06T08:49:08;1.90;;;0.68;;
27833;SDS011;15200;50.570;7.244;2023-08-06T08:51:35;1.20;;;0.70;;
27833;SDS011;15200;50.570;7.244;2023-08-06T08:54:03;0.90;;;0.70;;
27833;SDS011;15200;50.570;7.244;2023-08-06T08:56:31;0.72;;;0.60;;
27833;SDS011;15200;50.570;7.244;2023-08-06T08:58:58;1.35;;;0.60;;
27833;SDS011;15200;50.570;7.244;2023-08-06T09:01:26;0.65;;;0.65;;
27833;SDS011;15200;50.570;7.244;2023-08-06T09:03:53;2.00;;;0.80;;
27833;SDS011;15200;50.570;7.244;2023-08-06T09:06:21;1.65;;;0.90;;
27833;SDS011;15200;50.570;7.244;2023-08-06T09:08:53;1.80;;;0.82;;
27833;SDS011;15200;50.570;7.244;2023-08-06T09:11:19;1.30;;;0.90;;
27833;SDS011;15200;50.570;7.244;2023-08-06T09:13:47;1.80;;;0.93;;
27833;SDS011;15200;50.570;7.244;2023-08-06T09:16:14;2.65;;;0.78;;
27833;SDS011;15200;50.570;7.244;2023-08-06T09:18:42;1.10;;;0.93;;
27833;SDS011;15200;50.570;7.244;2023-08-06T09:21:13;0.98;;;0.90;;
27833;SDS011;15200;50.570;7.244;2023-08-06T09:23:38;0.68;;;0.65;;
27833;SDS011;15200;50.570;7.244;2023-08-06T09:26:05;1.40;;;0.80;;
27833;SDS011;15200;50.570;7.244;2023-08-06T09:28:38;2.27;;;0.90;;
27833;SDS011;15200;50.570;7.244;2023-08-06T09:31:08;1.55;;;1.10;;
27833;SDS011;15200;50.570;7.244;2023-08-06T09:33:38;1.40;;;0.90;;
27833;SDS011;15200;50.570;7.244;2023-08-06T09:36:09;2.35;;;1.20;;
27833;SDS011;15200;50.570;7.244;2023-08-06T09:38:40;1.80;;;0.90;;
27833;SDS011;15200;50.570;7.244;2023-08-06T09:41:07;2.22;;;0.57;;
27833;SDS011;15200;50.570;7.244;2023-08-06T09:43:41;1.07;;;0.62;;
27833;SDS011;15200;50.570;7.244;2023-08-06T09:46:11;0.40;;;0.30;;
27833;SDS011;15200;50.570;7.244;2023-08-06T09:48:41;0.62;;;0.42;;
27833;SDS011;15200;50.570;7.244;2023-08-06T09:51:08;1.25;;;0.30;;
27833;SDS011;15200;50.570;7.244;2023-08-06T09:53:36;0.17;;;0.17;;
27833;SDS011;15200;50.570;7.244;2023-08-06T09:56:04;0.55;;;0.20;;
27833;SDS011;15200;50.570;7.244;2023-08-06T09:58:32;0.10;;;0.10;;
27833;SDS011;15200;50.570;7.244;2023-08-06T10:01:02;0.45;;;0.20;;
27833;SDS011;15200;50.570;7.244;2023-08-06T10:03:29;0.53;;;0.13;;
27833;SDS011;15200;50.570;7.244;2023-08-06T10:05:57;0.20;;;0.20;;
27833;SDS011;15200;50.570;7.244;2023-08-06T10:08:24;1.10;;;0.20;;
27833;SDS011;15200;50.570;7.244;2023-08-06T10:10:52;0.20;;;0.20;;
27833;SDS011;15200;50.570;7.244;2023-08-06T10:13:19;0.20;;;0.20;;
27833;SDS011;15200;50.570;7.244;2023-08-06T10:15:48;0.72;;;0.55;;
27833;SDS011;15200;50.570;7.244;2023-08-06T10:18:17;1.20;;;0.30;;
27833;SDS011;15200;50.570;7.244;2023-08-06T10:20:46;0.62;;;0.20;;
27833;SDS011;15200;50.570;7.244;2023-08-06T10:23:14;0.45;;;0.30;;
27833;SDS011;15200;50.570;7.244;2023-08-06T10:25:42;0.30;;;0.23;;
27833;SDS011;15200;50.570;7.244;2023-08-06T10:28:10;0.30;;;0.30;;
27833;SDS011;15200;50.570;7.244;2023-08-06T10:30:42;0.35;;;0.35;;
27833;SDS011;15200;50.570;7.244;2023-08-06T10:33:10;0.82;;;0.30;;
27833;SDS011;15200;50.570;7.244;2023-08-06T10:35:44;0.82;;;0.50;;
27833;SDS011;15200;50.570;7.244;2023-08-06T10:38:20;0.55;;;0.55;;
27833;SDS011;15200;50.570;7.244;2023-08-06T10:43:25;0.80;;;0.60;;
27833;SDS011;15200;50.570;7.244;2023-08-06T10:45:53;2.45;;;0.60;;
27833;SDS011;15200;50.570;7.244;2023-08-06T10:48:36;1.02;;;0.50;;
27833;SDS011;15200;50.570;7.244;2023-08-06T10:51:08;0.62;;;0.50;;
27833;SDS011;15200;50.570;7.244;2023-08-06T10:53:35;0.40;;;0.40;;
27833;SDS011;15200;50.570;7.244;2023-08-06T10:56:12;1.32;;;0.68;;
27833;SDS011;15200;50.570;7.244;2023-08-06T10:58:34;1.30;;;0.40;;
27833;SDS011;15200;50.570;7.244;2023-08-06T11:01:02;3.67;;;0.80;;
27833;SDS011;15200;50.570;7.244;2023-08-06T11:03:29;1.15;;;0.60;;
27833;SDS011;15200;50.570;7.244;2023-08-06T11:05:56;1.32;;;0.57;;
27833;SDS011;15200;50.570;7.244;2023-08-06T11:08:27;1.20;;;0.70;;
27833;SDS011;15200;50.570;7.244;2023-08-06T11:10:54;2.05;;;0.60;;
27833;SDS011;15200;50.570;7.244;2023-08-06T11:13:22;1.42;;;0.60;;
27833;SDS011;15200;50.570;7.244;2023-08-06T11:15:51;2.00;;;0.60;;
27833;SDS011;15200;50.570;7.244;2023-08-06T11:18:20;1.47;;;0.70;;
27833;SDS011;15200;50.570;7.244;2023-08-06T11:20:47;2.25;;;0.85;;
27833;SDS011;15200;50.570;7.244;2023-08-06T11:26:01;1.37;;;0.68;;
27833;SDS011;15200;50.570;7.244;2023-08-06T11:28:29;2.98;;;0.70;;
27833;SDS011;15200;50.570;7.244;2023-08-06T11:30:57;1.90;;;0.70;;
27833;SDS011;15200;50.570;7.244;2023-08-06T11:33:26;2.90;;;0.85;;
27833;SDS011;15200;50.570;7.244;2023-08-06T11:35:55;3.10;;;0.80;;
27833;SDS011;15200;50.570;7.244;2023-08-06T11:38:27;2.05;;;0.55;;
27833;SDS011;15200;50.570;7.244;2023-08-06T11:40:52;2.17;;;0.75;;
27833;SDS011;15200;50.570;7.244;2023-08-06T11:43:19;1.75;;;0.62;;
27833;SDS011;15200;50.570;7.244;2023-08-06T11:45:50;0.40;;;0.40;;
27833;SDS011;15200;50.570;7.244;2023-08-06T11:48:19;2.33;;;0.60;;
27833;SDS011;15200;50.570;7.244;2023-08-06T11:50:46;1.57;;;0.70;;
27833;SDS011;15200;50.570;7.244;2023-08-06T11:53:14;1.52;;;0.50;;
27833;SDS011;15200;50.570;7.244;2023-08-06T11:55:41;0.72;;;0.53;;
27833;SDS011;15200;50.570;7.244;2023-08-06T11:58:09;2.87;;;0.45;;
27833;SDS011;15200;50.570;7.244;2023-08-06T12:00:41;1.32;;;0.50;;
27833;SDS011;15200;50.570;7.244;2023-08-06T12:03:09;0.88;;;0.47;;
27833;SDS011;15200;50.570;7.244;2023-08-06T12:05:37;1.35;;;0.50;;
27833;SDS011;15200;50.570;7.244;2023-08-06T12:08:05;0.60;;;0.57;;
27833;SDS011;15200;50.570;7.244;2023-08-06T12:10:32;1.20;;;0.40;;
27833;SDS011;15200;50.570;7.244;2023-08-06T12:13:00;2.65;;;0.65;;
27833;SDS011;15200;50.570;7.244;2023-08-06T12:15:28;0.95;;;0.40;;
27833;SDS011;15200;50.570;7.244;2023-08-06T12:17:56;1.02;;;0.55;;
27833;SDS011;15200;50.570;7.244;2023-08-06T12:20:23;2.87;;;0.70;;
27833;SDS011;15200;50.570;7.244;2023-08-06T12:22:51;3.27;;;0.82;;
27833;SDS011;15200;50.570;7.244;2023-08-06T12:25:21;1.37;;;0.50;;
27833;SDS011;15200;50.570;7.244;2023-08-06T12:27:47;1.72;;;0.80;;
27833;SDS011;15200;50.570;7.244;2023-08-06T12:30:15;1.95;;;0.80;;
27833;SDS011;15200;50.570;7.244;2023-08-06T12:32:42;3.98;;;0.80;;
27833;SDS011;15200;50.570;7.244;2023-08-06T12:35:09;2.05;;;0.50;;
27833;SDS011;15200;50.570;7.244;2023-08-06T12:37:37;4.40;;;1.02;;
27833;SDS011;15200;50.570;7.244;2023-08-06T12:40:08;1.10;;;0.70;;
27833;SDS011;15200;50.570;7.244;2023-08-06T12:42:35;0.80;;;0.62;;
27833;SDS011;15200;50.570;7.244;2023-08-06T12:45:03;1.75;;;0.60;;
27833;SDS011;15200;50.570;7.244;2023-08-06T12:47:30;5.10;;;0.80;;
27833;SDS011;15200;50.570;7.244;2023-08-06T12:49:57;2.25;;;0.75;;
27833;SDS011;15200;50.570;7.244;2023-08-06T12:52:25;1.72;;;0.78;;
27833;SDS011;15200;50.570;7.244;2023-08-06T12:54:52;3.92;;;0.60;;
27833;SDS011;15200;50.570;7.244;2023-08-06T12:57:19;1.77;;;0.53;;
27833;SDS011;15200;50.570;7.244;2023-08-06T12:59:47;1.82;;;0.88;;
27833;SDS011;15200;50.570;7.244;2023-08-06T13:02:14;2.00;;;0.72;;
27833;SDS011;15200;50.570;7.244;2023-08-06T13:04:41;3.45;;;0.98;;
27833;SDS011;15200;50.570;7.244;2023-08-06T13:07:09;2.47;;;0.75;;
27833;SDS011;15200;50.570;7.244;2023-08-06T13:09:36;2.22;;;1.00;;
27833;SDS011;15200;50.570;7.244;2023-08-06T13:12:03;3.65;;;0.72;;
27833;SDS011;15200;50.570;7.244;2023-08-06T13:14:32;3.20;;;1.10;;
27833;SDS011;15200;50.570;7.244;2023-08-06T13:16:59;6.47;;;0.80;;
27833;SDS011;15200;50.570;7.244;2023-08-06T13:19:27;1.00;;;0.60;;
27833;SDS011;15200;50.570;7.244;2023-08-06T13:24:41;0.75;;;0.55;;
27833;SDS011;15200;50.570;7.244;2023-08-06T13:27:08;3.35;;;0.65;;
27833;SDS011;15200;50.570;7.244;2023-08-06T13:29:36;2.58;;;0.80;;
27833;SDS011;15200;50.570;7.244;2023-08-06T13:32:03;1.60;;;0.60;;
27833;SDS011;15200;50.570;7.244;2023-08-06T13:34:30;0.93;;;0.62;;
27833;SDS011;15200;50.570;7.244;2023-08-06T13:36:58;1.00;;;0.53;;
27833;SDS011;15200;50.570;7.244;2023-08-06T13:39:25;1.87;;;0.40;;
27833;SDS011;15200;50.570;7.244;2023-08-06T13:41:52;2.25;;;0.40;;
27833;SDS011;15200;50.570;7.244;2023-08-06T13:44:20;1.25;;;0.55;;
27833;SDS011;15200;50.570;7.244;2023-08-06T13:46:47;0.70;;;0.55;;
27833;SDS011;15200;50.570;7.244;2023-08-06T13:49:14;1.00;;;0.50;;
27833;SDS011;15200;50.570;7.244;2023-08-06T13:51:42;0.37;;;0.37;;
27833;SDS011;15200;50.570;7.244;2023-08-06T13:54:09;5.50;;;0.85;;
27833;SDS011;15200;50.570;7.244;2023-08-06T13:56:36;3.02;;;0.98;;
27833;SDS011;15200;50.570;7.244;2023-08-06T13:59:04;0.65;;;0.62;;
27833;SDS011;15200;50.570;7.244;2023-08-06T14:01:31;2.80;;;0.80;;
27833;SDS011;15200;50.570;7.244;2023-08-06T14:03:59;4.65;;;1.22;;
27833;SDS011;15200;50.570;7.244;2023-08-06T14:06:26;2.25;;;0.80;;
27833;SDS011;15200;50.570;7.244;2023-08-06T14:08:54;1.02;;;0.90;;
27833;SDS011;15200;50.570;7.244;2023-08-06T14:11:21;2.92;;;1.17;;
27833;SDS011;15200;50.570;7.244;2023-08-06T14:13:48;2.12;;;0.75;;
27833;SDS011;15200;50.570;7.244;2023-08-06T14:16:16;2.05;;;0.95;;
27833;SDS011;15200;50.570;7.244;2023-08-06T14:18:43;2.17;;;0.70;;
27833;SDS011;15200;50.570;7.244;2023-08-06T14:21:11;2.42;;;1.32;;
27833;SDS011;15200;50.570;7.244;2023-08-06T14:23:38;2.83;;;0.90;;
27833;SDS011;15200;50.570;7.244;2023-08-06T14:26:09;3.67;;;0.93;;
27833;SDS011;15200;50.570;7.244;2023-08-06T14:28:37;2.72;;;0.90;;
27833;SDS011;15200;50.570;7.244;2023-08-06T14:31:05;2.45;;;0.70;;
27833;SDS011;15200;50.570;7.244;2023-08-06T14:33:32;1.65;;;0.70;;
27833;SDS011;15200;50.570;7.244;2023-08-06T14:36:00;2.45;;;0.50;;
27833;SDS011;15200;50.570;7.244;2023-08-06T14:38:28;2.42;;;0.95;;
27833;SDS011;15200;50.570;7.244;2023-08-06T14:40:55;2.15;;;0.80;;
27833;SDS011;15200;50.570;7.244;2023-08-06T14:43:22;1.77;;;0.78;;
27833;SDS011;15200;50.570;7.244;2023-08-06T14:45:50;2.65;;;0.70;;
27833;SDS011;15200;50.570;7.244;2023-08-06T14:48:17;4.50;;;1.25;;
27833;SDS011;15200;50.570;7.244;2023-08-06T14:50:44;0.80;;;0.50;;
27833;SDS011;15200;50.570;7.244;2023-08-06T14:53:12;3.47;;;0.55;;
27833;SDS011;15200;50.570;7.244;2023-08-06T14:55:39;1.27;;;0.45;;
27833;SDS011;15200;50.570;7.244;2023-08-06T14:58:08;1.07;;;0.47;;
27833;SDS011;15200;50.570;7.244;2023-08-06T15:00:35;3.87;;;0.72;;
27833;SDS011;15200;50.570;7.244;2023-08-06T15:03:02;1.35;;;0.40;;
27833;SDS011;15200;50.570;7.244;2023-08-06T15:05:30;2.02;;;0.53;;